Time;durP1;ratioP1;P1;durP2;ratioP2;P2;SDS_P1;SDS_P2;PMS_P1;PMS_P2;Temp;Humidity;BMP_temperature;BMP_pressure;BME280_temperature;BME280_humidity;BME280_pressure;Samples;Min_cycle;Max_cycle;Signal;HPM_P1;HPM_P2
2023/04/10 00:00:23;;;;;;;11.82;10.57;;;;;;;8.20;75.29;101946.97;6269195;22;20035;-89
2023/04/10 00:02:48;;;;;;;12.63;10.02;;;;;;;8.21;74.44;101939.88;6269720;22;20012;-89
2023/04/10 00:05:15;;;;;;;11.45;9.82;;;;;;;8.21;73.89;101932.78;6243267;22;20007;-89
2023/04/10 00:07:40;;;;;;;11.73;10.52;;;;;;;8.21;74.86;101914.22;6242499;23;20114;-88
2023/04/10 00:10:06;;;;;;;11.88;10.60;;;;;;;8.17;74.52;101920.50;6238826;23;20019;-90
2023/04/10 00:12:31;;;;;;;11.70;10.50;;;;;;;8.09;74.00;101906.56;6268710;22;20009;-88
2023/04/10 00:14:57;;;;;;;11.95;10.50;;;;;;;8.10;74.45;101903.00;6260513;22;20012;-88
2023/04/10 00:17:22;;;;;;;11.82;10.63;;;;;;;8.07;74.28;101897.78;6221506;23;20008;-89
2023/04/10 00:19:47;;;;;;;11.02;10.02;;;;;;;8.07;74.82;101896.88;6221072;23;20085;-88
2023/04/10 00:22:13;;;;;;;11.73;10.13;;;;;;;8.02;74.43;101890.81;6249353;23;20046;-90
2023/04/10 00:24:38;;;;;;;11.52;10.30;;;;;;;7.98;75.22;101885.63;6247854;23;20027;-88
2023/04/10 00:27:03;;;;;;;11.70;10.50;;;;;;;8.01;75.62;101889.09;6260887;23;19988;-89
2023/04/10 00:29:29;;;;;;;11.43;10.30;;;;;;;7.87;75.67;101869.09;6266468;23;20044;-89
2023/04/10 00:31:54;;;;;;;11.40;10.20;;;;;;;7.91;75.36;101883.13;6268609;22;19997;-88
2023/04/10 00:34:19;;;;;;;11.63;10.43;;;;;;;7.86;76.02;101883.25;6242184;23;20022;-88
2023/04/10 00:36:48;;;;;;;11.05;9.55;;;;;;;7.85;76.48;101880.63;6268430;22;20008;-89
2023/04/10 00:39:13;;;;;;;11.43;10.23;;;;;;;7.77;75.79;101869.31;6241424;23;20089;-89
2023/04/10 00:41:38;;;;;;;11.00;10.00;;;;;;;7.80;75.97;101875.41;6256773;23;20508;-87
2023/04/10 00:44:03;;;;;;;12.02;10.48;;;;;;;7.79;76.26;101879.00;6225265;23;20011;-88
2023/04/10 00:46:30;;;;;;;10.68;9.57;;;;;;;7.77;76.58;101877.25;6247534;23;20078;-88
2023/04/10 00:48:56;;;;;;;11.55;10.35;;;;;;;7.68;76.46;101860.66;6246183;22;20039;-88
2023/04/10 00:51:22;;;;;;;12.13;10.65;;;;;;;7.69;76.81;101859.78;6247390;23;20001;-88
2023/04/10 00:53:50;;;;;;;11.43;9.60;;;;;;;7.66;76.78;101864.28;6247606;23;20493;-88
2023/04/10 00:56:16;;;;;;;11.48;10.27;;;;;;;7.65;76.82;101860.75;6246096;23;20004;-88
2023/04/10 00:58:41;;;;;;;12.98;10.82;;;;;;;7.64;76.60;101858.13;6244630;23;20004;-89
2023/04/10 01:01:07;;;;;;;11.43;10.25;;;;;;;7.59;76.75;101867.97;6243359;23;20083;-88
2023/04/10 01:03:33;;;;;;;11.18;9.85;;;;;;;7.55;77.13;101863.63;6243792;23;20023;-88
2023/04/10 01:06:20;;;;;;;11.85;10.65;;;;;;;7.47;76.78;101850.56;6243420;23;20012;-87
2023/04/10 01:08:54;;;;;;;11.90;10.57;;;;;;;7.49;77.11;101854.06;6243989;23;20010;-89
2023/04/10 01:11:38;;;;;;;11.63;10.35;;;;;;;7.49;76.48;101860.22;6216353;23;20064;-88
2023/04/10 01:14:18;;;;;;;11.48;10.20;;;;;;;7.49;76.62;101862.88;6214338;23;20027;-89
2023/04/10 01:17:00;;;;;;;11.82;10.55;;;;;;;7.48;77.25;101860.22;6241434;23;20003;-89
2023/04/10 01:19:46;;;;;;;11.45;10.25;;;;;;;7.44;78.07;101859.44;6241204;23;20004;-89
2023/04/10 01:22:15;;;;;;;11.38;10.15;;;;;;;7.39;77.90;101848.06;6243311;23;20004;-90
2023/04/10 01:25:03;;;;;;;12.32;10.45;;;;;;;7.34;79.01;101847.28;6242142;23;20035;-88
2023/04/10 01:28:01;;;;;;;12.10;10.20;;;;;;;7.37;78.13;101844.59;6214591;23;20325;-88
2023/04/10 01:30:27;;;;;;;11.65;10.45;;;;;;;7.33;78.53;101839.41;6119691;23;20033;-89
2023/04/10 01:32:58;;;;;;;12.07;10.70;;;;;;;7.32;78.47;101845.59;6120136;23;20064;-87
2023/04/10 01:35:25;;;;;;;11.43;10.00;;;;;;;7.27;79.13;101850.97;6121842;23;20013;-88
2023/04/10 01:37:54;;;;;;;11.65;10.38;;;;;;;7.28;78.81;101842.16;6119079;23;20080;-88
2023/04/10 01:40:20;;;;;;;11.77;10.57;;;;;;;7.28;78.74;101843.94;6120707;23;20084;-88
2023/04/10 01:42:49;;;;;;;11.15;10.05;;;;;;;7.27;78.89;101850.09;6121020;23;20025;-89
2023/04/10 01:45:19;;;;;;;12.38;10.82;;;;;;;7.19;79.33;101844.97;6119269;23;20013;-86
2023/04/10 01:47:46;;;;;;;11.50;10.30;;;;;;;7.18;80.28;101840.56;6124346;23;20341;-89
2023/04/10 01:50:12;;;;;;;12.13;10.82;;;;;;;7.14;80.13;101841.53;6150550;23;20010;-89
2023/04/10 01:52:40;;;;;;;11.82;10.63;;;;;;;7.07;80.45;101832.00;6130332;23;20100;-88
2023/04/10 01:55:07;;;;;;;11.30;10.20;;;;;;;7.05;79.83;101831.16;6155084;23;20341;-90
2023/04/10 01:57:34;;;;;;;11.40;10.27;;;;;;;6.99;80.36;101833.03;6152080;23;20181;-89
2023/04/10 02:00:00;;;;;;;11.75;10.55;;;;;;;6.96;80.24;101821.63;6156951;23;20013;-90
2023/04/10 02:02:30;;;;;;;11.95;10.68;;;;;;;6.96;79.96;101817.19;6159713;23;20010;-91
2023/04/10 02:04:55;;;;;;;12.15;10.85;;;;;;;6.97;80.11;101815.41;6159632;23;20061;-90
2023/04/10 02:07:50;;;;;;;12.93;10.60;;;;;;;6.92;79.82;101810.22;6220332;23;20008;-90
2023/04/10 02:10:33;;;;;;;11.82;10.63;;;;;;;6.92;79.73;101807.56;6261549;23;20030;-89
2023/04/10 02:13:06;;;;;;;12.68;10.88;;;;;;;6.89;80.09;101804.13;6260469;23;20016;-91
2023/04/10 02:15:32;;;;;;;13.43;11.18;;;;;;;6.90;80.24;101796.16;6267336;22;20279;-89
2023/04/10 02:17:59;;;;;;;12.38;11.07;;;;;;;6.81;80.04;101779.56;6268465;22;20412;-88
2023/04/10 02:20:25;;;;;;;12.68;11.38;;;;;;;6.81;79.90;101779.56;6268123;22;19989;-90
2023/04/10 02:22:52;;;;;;;12.15;10.90;;;;;;;6.85;79.92;101782.13;6268328;22;20001;-88
2023/04/10 02:25:17;;;;;;;12.98;11.57;;;;;;;6.89;79.96;101782.94;6246542;23;20008;-89
2023/04/10 02:27:43;;;;;;;12.95;11.00;;;;;;;6.84;79.85;101785.69;6245562;23;20007;-90
2023/04/10 02:30:09;;;;;;;12.70;11.02;;;;;;;6.84;80.03;101779.53;6246535;23;20074;-90
2023/04/10 02:32:35;;;;;;;13.43;11.55;;;;;;;6.80;79.78;101768.13;6246279;23;20376;-88
2023/04/10 02:35:01;;;;;;;12.45;11.05;;;;;;;6.81;79.71;101767.22;6245520;23;20015;-90
2023/04/10 02:37:27;;;;;;;13.60;11.50;;;;;;;6.79;79.83;101769.03;6242002;23;20134;-90
2023/04/10 02:39:53;;;;;;;14.00;11.75;;;;;;;6.79;79.68;101774.31;6242834;23;20371;-89
2023/04/10 02:42:19;;;;;;;13.13;11.02;;;;;;;6.84;79.62;101775.09;6243756;23;20031;-90
2023/04/10 02:44:45;;;;;;;11.85;10.65;;;;;;;6.78;80.26;101766.44;6239774;23;20434;-90
2023/04/10 02:47:10;;;;;;;12.30;11.07;;;;;;;6.75;79.81;101770.00;6241892;23;20014;-88
2023/04/10 02:49:35;;;;;;;12.20;10.95;;;;;;;6.79;79.93;101779.63;6241228;22;20072;-90
2023/04/10 02:52:01;;;;;;;12.38;11.10;;;;;;;6.76;80.38;101777.03;6243285;23;20012;-90
2023/04/10 02:54:26;;;;;;;12.75;11.45;;;;;;;6.76;79.85;101776.16;6241747;23;20035;-89
2023/04/10 02:56:52;;;;;;;13.32;11.20;;;;;;;6.78;80.09;101777.03;6243230;23;20019;-90
2023/04/10 02:59:17;;;;;;;13.68;10.93;;;;;;;6.78;79.84;101774.38;6243705;23;20008;-89
2023/04/10 03:01:44;;;;;;;12.30;11.00;;;;;;;6.77;79.86;101773.47;6217503;23;20046;-89
2023/04/10 03:04:10;;;;;;;11.25;10.15;;;;;;;6.71;79.77;101768.31;6243903;23;20007;-89
2023/04/10 03:06:35;;;;;;;12.07;10.23;;;;;;;6.71;79.75;101768.31;6242931;23;20027;-87
2023/04/10 03:09:00;;;;;;;11.68;10.55;;;;;;;6.69;79.44;101764.84;6243390;23;20022;-90
2023/04/10 03:11:26;;;;;;;12.90;10.75;;;;;;;6.65;79.74;101763.16;6255968;23;20071;-87
2023/04/10 03:13:51;;;;;;;11.93;10.35;;;;;;;6.64;79.92;101771.97;6261722;23;20011;-89
2023/04/10 03:16:17;;;;;;;11.52;10.40;;;;;;;6.63;80.08;101770.25;6265390;23;19996;-88
2023/04/10 03:18:42;;;;;;;12.20;10.95;;;;;;;6.60;80.42;101780.88;6239524;23;19981;-86
2023/04/10 03:21:07;;;;;;;12.05;10.85;;;;;;;6.56;80.71;101769.47;6258460;23;20441;-88
2023/04/10 03:23:33;;;;;;;13.15;11.77;;;;;;;6.51;80.89;101776.63;6249513;23;20000;-88
2023/04/10 03:25:58;;;;;;;12.07;10.85;;;;;;;6.46;81.22;101766.16;6245936;23;20418;-91
2023/04/10 03:28:23;;;;;;;13.02;11.65;;;;;;;6.46;81.39;101776.72;6218234;23;20290;-88
2023/04/10 03:30:49;;;;;;;12.77;11.48;;;;;;;6.46;81.21;101775.88;6243492;23;20007;-90
2023/04/10 03:33:15;;;;;;;12.43;11.13;;;;;;;6.44;81.42;101767.97;6243663;23;20004;-89
2023/04/10 03:35:40;;;;;;;12.70;11.38;;;;;;;6.41;81.45;101775.94;6240736;23;20008;-90
2023/04/10 03:38:06;;;;;;;13.07;11.68;;;;;;;6.38;81.93;101780.41;6240996;23;20130;-89
2023/04/10 03:40:33;;;;;;;13.18;11.70;;;;;;;6.32;81.88;101765.56;6214264;23;20012;-90
2023/04/10 03:42:58;;;;;;;14.15;11.60;;;;;;;6.30;81.82;101762.03;6213596;23;20404;-89
2023/04/10 03:45:24;;;;;;;13.18;11.77;;;;;;;6.23;81.68;101749.88;6239954;23;19999;-88
2023/04/10 03:47:49;;;;;;;13.07;11.75;;;;;;;6.24;82.22;101741.03;6242249;22;20008;-89
2023/04/10 03:50:14;;;;;;;13.20;11.88;;;;;;;6.21;82.67;101751.66;6217967;23;20481;-88
2023/04/10 03:52:40;;;;;;;12.82;11.52;;;;;;;6.14;82.75;101747.38;6244951;23;20032;-90
2023/04/10 03:55:05;;;;;;;13.52;11.68;;;;;;;6.14;83.17;101750.00;6244841;23;20039;-90
2023/04/10 03:57:31;;;;;;;12.98;11.38;;;;;;;6.06;83.56;101738.69;6245850;23;20020;-89
2023/04/10 03:59:56;;;;;;;14.77;13.18;;;;;;;6.04;83.84;101736.09;6248017;23;20006;-89
2023/04/10 04:02:21;;;;;;;14.50;12.52;;;;;;;6.05;83.77;101744.88;6248601;23;20011;-88
2023/04/10 04:04:47;;;;;;;14.63;13.02;;;;;;;6.01;83.97;101740.56;6252552;23;20012;-88
2023/04/10 04:07:12;;;;;;;13.70;12.30;;;;;;;5.91;84.21;101735.41;6259002;23;20453;-88
2023/04/10 04:09:39;;;;;;;14.95;12.90;;;;;;;5.86;84.44;101736.41;6260594;23;20004;-89
2023/04/10 04:12:06;;;;;;;14.55;12.75;;;;;;;5.84;85.06;101727.59;6264042;22;20007;-89
2023/04/10 04:14:31;;;;;;;13.52;12.23;;;;;;;5.84;84.94;101739.03;6263669;22;19992;-88
2023/04/10 04:16:56;;;;;;;15.00;13.00;;;;;;;5.79;85.27;101727.69;6253788;22;20087;-90
2023/04/10 04:19:22;;;;;;;14.43;12.50;;;;;;;5.73;85.46;101725.16;6248157;23;20000;-89
2023/04/10 04:21:47;;;;;;;14.60;13.10;;;;;;;5.75;85.98;101731.28;6249219;23;20003;-89
2023/04/10 04:24:12;;;;;;;13.95;12.57;;;;;;;5.72;85.65;101718.09;6232334;23;20034;-89
2023/04/10 04:26:38;;;;;;;13.77;12.27;;;;;;;5.70;86.02;101722.56;6259788;23;19996;-90
2023/04/10 04:29:03;;;;;;;14.13;12.43;;;;;;;5.66;85.61;101716.47;6232449;23;19996;-90
2023/04/10 04:31:31;;;;;;;13.65;12.25;;;;;;;5.62;85.85;101713.91;6267699;22;19995;-90
2023/04/10 04:33:57;;;;;;;13.60;12.05;;;;;;;5.62;85.95;101716.53;6269031;22;19992;-89
2023/04/10 04:36:22;;;;;;;14.10;12.70;;;;;;;5.64;86.01;101715.63;6268885;22;19988;-89
2023/04/10 04:38:47;;;;;;;14.02;12.52;;;;;;;5.62;86.11;101721.81;6268394;22;20000;-90
2023/04/10 04:41:14;;;;;;;13.80;12.15;;;;;;;5.60;86.28;101711.28;6268694;22;19992;-89
2023/04/10 04:43:40;;;;;;;14.02;12.30;;;;;;;5.59;86.49;101712.16;6269266;22;19992;-89
2023/04/10 04:46:05;;;;;;;14.00;12.55;;;;;;;5.58;86.02;101706.91;6252291;23;20452;-90
2023/04/10 04:48:30;;;;;;;13.55;12.23;;;;;;;5.64;86.45;101715.63;6246846;22;20047;-90
2023/04/10 04:50:56;;;;;;;13.80;12.30;;;;;;;5.65;85.72;101716.50;6249774;23;20030;-90
2023/04/10 04:53:21;;;;;;;13.50;12.15;;;;;;;5.67;85.79;101712.03;6248612;23;20030;-89
2023/04/10 04:55:46;;;;;;;13.07;11.77;;;;;;;5.66;85.60;101711.16;6247733;23;20000;-88
2023/04/10 04:58:12;;;;;;;13.27;11.88;;;;;;;5.74;85.73;101713.69;6250796;23;20544;-90
2023/04/10 05:00:37;;;;;;;13.70;12.23;;;;;;;5.68;85.61;101703.22;6251543;23;20014;-89
2023/04/10 05:03:02;;;;;;;14.18;12.38;;;;;;;5.69;85.86;101705.84;6249657;23;20000;-89
2023/04/10 05:05:28;;;;;;;14.05;12.65;;;;;;;5.69;85.77;101704.97;6248016;23;20004;-88
2023/04/10 05:07:53;;;;;;;13.65;12.20;;;;;;;5.72;85.40;101695.22;6245097;23;20008;-89
2023/04/10 05:10:19;;;;;;;13.90;12.50;;;;;;;5.69;85.52;101697.06;6245815;23;20004;-88
2023/04/10 05:12:44;;;;;;;14.57;13.07;;;;;;;5.68;85.40;101698.78;6244623;23;20019;-89
2023/04/10 05:15:10;;;;;;;13.30;11.90;;;;;;;5.70;85.95;101688.22;6218061;23;20007;-88
2023/04/10 05:17:35;;;;;;;13.32;11.68;;;;;;;5.74;85.31;101695.19;6244062;23;20004;-87
2023/04/10 05:20:00;;;;;;;14.00;12.60;;;;;;;5.77;85.46;101684.59;6244218;23;20153;-89
2023/04/10 05:22:27;;;;;;;12.82;11.52;;;;;;;5.75;84.94;101679.31;6243269;23;20007;-88
2023/04/10 05:24:54;;;;;;;13.13;11.82;;;;;;;5.83;85.32;101676.53;6243693;23;20004;-87
2023/04/10 05:27:20;;;;;;;14.52;12.20;;;;;;;5.83;84.70;101671.25;6244638;23;20307;-88
2023/04/10 05:29:45;;;;;;;12.80;11.45;;;;;;;5.85;84.59;101664.19;6243654;23;20014;-88
2023/04/10 05:32:10;;;;;;;13.68;12.27;;;;;;;5.96;84.63;101683.38;6242657;23;20355;-89
2023/04/10 05:34:36;;;;;;;12.90;11.60;;;;;;;6.00;84.61;101681.56;6240157;23;20053;-90
2023/04/10 05:37:01;;;;;;;13.38;11.98;;;;;;;6.05;83.45;101686.75;6242082;23;20004;-89
2023/04/10 05:39:26;;;;;;;12.77;11.43;;;;;;;6.10;83.48;101685.75;6242894;23;20027;-88
2023/04/10 05:41:52;;;;;;;13.60;12.20;;;;;;;6.14;83.06;101684.78;6243975;23;20003;-89
2023/04/10 05:44:17;;;;;;;13.15;11.75;;;;;;;6.20;82.87;101679.41;6262362;23;20004;-88
2023/04/10 05:46:42;;;;;;;14.48;11.88;;;;;;;6.27;82.49;101687.19;6236491;23;20027;-89
2023/04/10 05:49:07;;;;;;;12.40;11.15;;;;;;;6.34;82.39;101679.13;6263363;22;20016;-90
2023/04/10 05:51:33;;;;;;;11.93;10.65;;;;;;;6.36;81.42;101674.69;6237731;23;20004;-90
2023/04/10 05:53:58;;;;;;;12.52;11.15;;;;;;;6.44;81.10;101678.06;6247555;23;20007;-91
2023/04/10 05:56:23;;;;;;;12.13;10.68;;;;;;;6.49;80.80;101681.47;6245847;23;20004;-90
2023/04/10 05:58:49;;;;;;;12.82;11.25;;;;;;;6.55;80.47;101685.75;6245431;23;20011;-88
2023/04/10 06:01:14;;;;;;;17.55;11.38;;;;;;;6.64;80.11;101682.03;6243214;23;20422;-88
2023/04/10 06:03:39;;;;;;;12.25;10.98;;;;;;;6.74;79.66;101689.75;6245497;23;20476;-90
2023/04/10 06:06:08;;;;;;;12.50;11.15;;;;;;;6.81;79.70;101679.91;6248884;23;20024;-90
2023/04/10 06:08:35;;;;;;;12.68;11.38;;;;;;;6.89;79.08;101675.31;6250429;23;20008;-88
2023/04/10 06:11:01;;;;;;;12.43;11.13;;;;;;;7.02;79.16;101682.97;6254029;23;20025;-91
2023/04/10 06:13:26;;;;;;;12.38;11.07;;;;;;;7.11;78.57;101688.09;6242787;23;20007;-89
2023/04/10 06:15:51;;;;;;;11.95;10.75;;;;;;;7.20;78.23;101691.38;6214569;23;20008;-86
2023/04/10 06:18:17;;;;;;;12.25;10.98;;;;;;;7.33;76.98;101688.44;6213099;23;20012;-88
2023/04/10 06:20:42;;;;;;;12.13;10.93;;;;;;;7.41;76.90;101675.88;6213180;23;20011;-88
2023/04/10 06:23:07;;;;;;;12.60;11.18;;;;;;;7.49;76.21;101674.78;6214227;23;20059;-87
2023/04/10 06:25:33;;;;;;;12.25;11.02;;;;;;;7.63;75.92;101685.03;6240943;23;20486;-88
2023/04/10 06:27:58;;;;;;;12.43;10.77;;;;;;;7.72;75.80;101676.84;6241217;23;20023;-88
2023/04/10 06:30:24;;;;;;;12.07;10.88;;;;;;;7.85;75.29;101682.69;6238456;23;20049;-87
2023/04/10 06:32:49;;;;;;;14.52;11.20;;;;;;;7.93;74.02;101680.72;6238832;23;20007;-87
2023/04/10 06:35:14;;;;;;;12.20;11.00;;;;;;;8.01;73.13;101669.03;6238834;23;20414;-88
2023/04/10 06:37:41;;;;;;;11.68;10.55;;;;;;;8.11;73.22;101666.13;6238416;23;20015;-87
2023/04/10 06:40:10;;;;;;;12.10;10.85;;;;;;;8.13;72.67;101663.41;6241208;23;20583;-87
2023/04/10 06:42:36;;;;;;;11.68;10.48;;;;;;;8.19;71.57;101657.91;6212373;23;20038;-85
2023/04/10 06:45:02;;;;;;;12.27;11.07;;;;;;;8.23;72.63;101662.22;6260634;23;20004;-88
2023/04/10 06:47:28;;;;;;;11.68;10.48;;;;;;;8.32;72.18;101656.69;6238752;22;20083;-89
2023/04/10 06:49:53;;;;;;;11.65;10.43;;;;;;;8.38;71.26;101647.69;6266570;22;20001;-87
2023/04/10 06:52:18;;;;;;;11.65;10.45;;;;;;;8.46;71.09;101645.69;6265076;22;20003;-88
2023/04/10 06:54:44;;;;;;;11.60;10.45;;;;;;;8.57;71.56;101630.34;6264312;22;19996;-88
2023/04/10 06:57:09;;;;;;;11.90;10.18;;;;;;;8.66;70.53;101626.53;6264718;22;20026;-86
2023/04/10 06:59:34;;;;;;;12.00;10.82;;;;;;;8.71;69.43;101625.47;6251747;22;20004;-87
2023/04/10 07:02:01;;;;;;;11.35;10.23;;;;;;;8.86;69.46;101617.94;6243796;23;20046;-88
2023/04/10 07:04:27;;;;;;;11.73;10.52;;;;;;;8.93;69.17;101604.41;6216590;23;20000;-87
2023/04/10 07:06:52;;;;;;;11.75;10.60;;;;;;;9.03;68.33;101607.69;6242208;23;20050;-88
2023/04/10 07:09:17;;;;;;;11.27;10.18;;;;;;;9.09;68.12;101601.28;6217637;23;20035;-88
2023/04/10 07:11:42;;;;;;;10.93;9.93;;;;;;;9.14;67.79;101594.88;6243525;23;20016;-88
2023/04/10 07:14:08;;;;;;;11.88;10.43;;;;;;;9.21;67.46;101600.88;6239283;23;20394;-87
2023/04/10 07:16:33;;;;;;;11.02;9.93;;;;;;;9.30;66.61;101595.25;6242573;23;20004;-87
2023/04/10 07:18:58;;;;;;;11.40;10.20;;;;;;;9.26;66.37;101583.00;6238164;23;20027;-88
2023/04/10 07:21:25;;;;;;;10.90;9.75;;;;;;;9.38;66.23;101587.03;6237539;23;20035;-88
2023/04/10 07:23:51;;;;;;;10.70;9.68;;;;;;;9.39;66.48;101578.13;6237318;23;20085;-89
2023/04/10 07:26:16;;;;;;;10.43;9.27;;;;;;;9.55;66.46;101581.13;6238165;23;20400;-88
2023/04/10 07:28:41;;;;;;;10.27;9.15;;;;;;;9.63;64.05;101577.28;6237196;23;20008;-87
2023/04/10 07:31:07;;;;;;;11.32;9.25;;;;;;;9.75;64.53;101581.31;6236848;23;20012;-87
2023/04/10 07:33:32;;;;;;;10.20;9.20;;;;;;;9.86;64.15;101571.13;6234350;23;20008;-88
2023/04/10 07:35:58;;;;;;;10.05;8.88;;;;;;;9.93;62.66;101559.38;6235773;23;20337;-87
2023/04/10 07:38:24;;;;;;;9.73;8.82;;;;;;;10.11;62.71;101565.78;6236900;23;20311;-88
2023/04/10 07:40:54;;;;;;;9.52;8.63;;;;;;;10.26;62.46;101563.53;6246994;23;20019;-87
2023/04/10 07:43:20;;;;;;;10.02;9.07;;;;;;;10.51;62.02;101558.13;6259860;23;20004;-87
2023/04/10 07:45:46;;;;;;;9.63;8.73;;;;;;;10.71;61.33;101558.19;6261303;23;20007;-86
2023/04/10 07:48:11;;;;;;;10.18;9.18;;;;;;;10.94;60.10;101555.47;6255251;22;20023;-85
2023/04/10 07:50:37;;;;;;;9.88;8.88;;;;;;;11.22;59.93;101544.53;6255687;23;20008;-87
2023/04/10 07:53:06;;;;;;;9.40;8.50;;;;;;;11.42;58.38;101546.34;6232846;23;20030;-87
2023/04/10 07:55:35;;;;;;;13.55;9.70;;;;;;;11.65;57.40;101539.13;6249973;23;20027;-88
2023/04/10 07:58:01;;;;;;;9.70;8.77;;;;;;;12.04;56.48;101519.63;6247558;23;20000;-87
2023/04/10 08:00:26;;;;;;;9.23;8.32;;;;;;;12.56;56.32;101518.03;6247245;23;20035;-88
2023/04/10 08:02:51;;;;;;;9.23;8.38;;;;;;;13.33;54.18;101524.91;6241182;23;20503;-87
2023/04/10 08:05:17;;;;;;;9.30;8.40;;;;;;;14.00;52.61;101517.81;6243162;23;20012;-87
2023/04/10 08:07:42;;;;;;;9.02;8.13;;;;;;;14.57;50.69;101513.72;6240020;23;20341;-87
2023/04/10 08:10:08;;;;;;;9.98;9.00;;;;;;;15.02;48.57;101511.16;6239755;23;20003;-86
2023/04/10 08:12:33;;;;;;;8.55;7.70;;;;;;;15.19;47.46;101503.84;6239659;23;20179;-88
2023/04/10 08:14:58;;;;;;;9.27;8.35;;;;;;;15.45;47.55;101506.78;6247145;23;20059;-88
2023/04/10 08:17:24;;;;;;;9.18;8.27;;;;;;;15.50;46.89;101501.13;6256405;23;20000;-86
2023/04/10 08:19:49;;;;;;;9.02;8.20;;;;;;;15.37;47.70;101496.50;6247756;23;20011;-89
2023/04/10 08:22:14;;;;;;;8.40;7.60;;;;;;;15.28;47.42;101494.38;6241361;23;20000;-87
2023/04/10 08:24:40;;;;;;;9.40;8.50;;;;;;;15.01;47.11;101494.22;6240000;23;20007;-87
2023/04/10 08:27:05;;;;;;;8.85;8.02;;;;;;;14.73;48.53;101497.66;6240095;23;20415;-87
2023/04/10 08:29:30;;;;;;;8.60;7.53;;;;;;;14.40;49.08;101495.91;6239856;23;19996;-88
2023/04/10 08:31:59;;;;;;;9.00;8.10;;;;;;;14.10;49.16;101495.81;6236798;23;20008;-87
2023/04/10 08:34:24;;;;;;;8.93;8.13;;;;;;;13.95;49.36;101505.53;6236836;23;20008;-88
2023/04/10 08:36:50;;;;;;;9.13;8.23;;;;;;;14.00;49.93;101491.03;6238685;23;20030;-88
2023/04/10 08:39:15;;;;;;;9.15;8.25;;;;;;;14.01;49.80;101490.13;6238153;23;20012;-86
2023/04/10 08:41:40;;;;;;;8.75;7.95;;;;;;;14.13;50.03;101492.13;6248505;23;20008;-88
2023/04/10 08:44:06;;;;;;;8.55;7.75;;;;;;;14.18;49.98;101492.72;6258195;23;20308;-88
2023/04/10 08:46:35;;;;;;;9.07;8.18;;;;;;;14.20;49.86;101490.81;6255553;23;20004;-85
2023/04/10 08:49:02;;;;;;;8.95;8.15;;;;;;;14.23;49.42;101481.75;6263771;22;20016;-88
2023/04/10 08:51:50;;;;;;;8.85;7.95;;;;;;;14.29;50.60;101482.25;6239293;23;20019;-88
2023/04/10 08:54:26;;;;;;;8.98;8.18;;;;;;;14.21;50.25;101479.13;6238684;23;20046;-88
2023/04/10 08:56:53;;;;;;;8.77;7.97;;;;;;;14.03;50.66;101493.56;6212448;23;20008;-87
2023/04/10 08:59:19;;;;;;;8.65;7.80;;;;;;;14.04;51.65;101480.06;6238367;23;20005;-88
2023/04/10 09:01:46;;;;;;;9.15;8.35;;;;;;;14.03;51.47;101482.84;6236996;23;20031;-88
2023/04/10 09:04:12;;;;;;;8.75;7.72;;;;;;;14.10;50.89;101486.94;6243209;23;20004;-88
2023/04/10 09:06:37;;;;;;;8.30;7.53;;;;;;;14.07;50.68;101476.38;6264190;22;20065;-86
2023/04/10 09:09:07;;;;;;;8.10;7.30;;;;;;;13.92;50.96;101468.25;6267324;22;20007;-86
2023/04/10 09:11:51;;;;;;;8.35;7.65;;;;;;;13.96;51.68;101476.94;6267170;22;20003;-87
2023/04/10 09:14:24;;;;;;;8.05;7.35;;;;;;;13.98;51.80;101480.44;6265477;22;20008;-87
2023/04/10 09:16:50;;;;;;;8.32;7.53;;;;;;;14.11;52.03;101468.09;6260943;23;20173;-86
2023/04/10 09:19:32;;;;;;;8.13;7.43;;;;;;;14.36;52.61;101467.56;6260523;23;20008;-86
2023/04/10 09:21:58;;;;;;;8.35;7.53;;;;;;;14.44;51.04;101465.31;6260776;23;20027;-86
2023/04/10 09:24:23;;;;;;;8.90;8.00;;;;;;;14.48;50.85;101465.16;6252174;23;20027;-85
2023/04/10 09:26:49;;;;;;;8.68;7.80;;;;;;;14.73;51.21;101467.31;6243736;23;20034;-87
2023/04/10 09:29:15;;;;;;;8.27;7.50;;;;;;;14.81;50.32;101465.91;6243783;23;20300;-87
2023/04/10 09:31:42;;;;;;;7.72;7.03;;;;;;;14.89;49.58;101462.78;6242754;23;20004;-87
2023/04/10 09:34:12;;;;;;;9.15;7.53;;;;;;;14.82;49.62;101448.00;6242713;23;20012;-86
2023/04/10 09:36:40;;;;;;;8.10;7.30;;;;;;;14.72;49.14;101453.06;6240464;23;20296;-86
2023/04/10 09:39:06;;;;;;;8.13;7.30;;;;;;;14.68;50.58;101443.47;6241037;23;20047;-87
2023/04/10 09:41:32;;;;;;;8.10;7.40;;;;;;;14.65;50.48;101428.44;6240203;23;20016;-87
2023/04/10 09:44:09;;;;;;;8.05;7.35;;;;;;;14.70;51.06;101425.47;6240262;23;20011;-87
2023/04/10 09:46:34;;;;;;;8.13;7.40;;;;;;;14.55;51.20;101419.22;6241878;23;20054;-86
2023/04/10 09:49:08;;;;;;;7.97;7.18;;;;;;;14.58;51.95;101408.28;6239025;22;20429;-88
2023/04/10 09:51:34;;;;;;;8.70;7.90;;;;;;;14.65;51.57;101404.31;6238541;23;20008;-87
2023/04/10 09:54:01;;;;;;;8.13;7.22;;;;;;;14.67;51.56;101397.06;6211396;23;20060;-86
2023/04/10 09:56:28;;;;;;;7.63;6.93;;;;;;;14.54;51.27;101396.03;6239090;23;20011;-87
2023/04/10 09:58:57;;;;;;;8.38;7.57;;;;;;;14.35;51.20;101398.03;6212039;23;20005;-88
2023/04/10 10:01:27;;;;;;;7.88;7.18;;;;;;;14.20;52.44;101394.41;6238850;23;20058;-86
2023/04/10 10:04:00;;;;;;;8.32;7.53;;;;;;;14.19;53.22;101398.91;6238469;23;20085;-87
2023/04/10 10:06:26;;;;;;;8.00;7.20;;;;;;;14.36;53.71;101397.94;6238492;23;20014;-88
2023/04/10 10:08:52;;;;;;;7.88;7.18;;;;;;;14.48;53.22;101398.19;6238576;23;20330;-87
2023/04/10 10:11:22;;;;;;;8.07;7.28;;;;;;;14.65;53.02;101398.97;6244676;23;20064;-86
2023/04/10 10:13:53;;;;;;;7.95;6.88;;;;;;;14.83;51.94;101393.44;6236816;23;20008;-87
2023/04/10 10:16:49;;;;;;;7.68;7.03;;;;;;;15.20;52.33;101379.53;6237019;23;20034;-86
2023/04/10 10:19:39;;;;;;;6.57;5.93;;;;;;;15.50;50.51;101383.94;6238048;23;20000;-87
2023/04/10 10:22:07;;;;;;;6.05;5.50;;;;;;;15.75;48.70;101367.19;6236511;23;20000;-87
2023/04/10 10:24:36;;;;;;;5.63;5.13;;;;;;;16.10;47.83;101358.69;6239271;23;20336;-87
2023/04/10 10:27:08;;;;;;;5.78;5.28;;;;;;;16.45;46.43;101348.25;6237584;23;20104;-87
2023/04/10 10:29:36;;;;;;;6.00;5.43;;;;;;;17.02;44.14;101356.03;6237195;23;20019;-85
2023/04/10 10:32:04;;;;;;;5.45;4.95;;;;;;;17.71;43.56;101347.53;6236798;23;20004;-86
2023/04/10 10:34:30;;;;;;;6.03;5.10;;;;;;;18.69;41.90;101345.63;6237928;23;20088;-87
2023/04/10 10:36:57;;;;;;;5.68;5.18;;;;;;;19.38;39.93;101346.47;6238716;23;20008;-86
2023/04/10 10:39:34;;;;;;;5.28;4.88;;;;;;;20.15;39.84;101341.13;6238089;23;20083;-86
2023/04/10 10:42:26;;;;;;;5.38;4.88;;;;;;;21.57;38.36;101330.69;6235001;23;20004;-86
2023/04/10 10:44:58;;;;;;;6.35;5.22;;;;;;;22.13;35.52;101327.44;6237340;23;20426;-89
2023/04/10 10:47:26;;;;;;;4.68;4.28;;;;;;;22.16;33.92;101326.31;6245028;22;20026;-86
2023/04/10 10:50:02;;;;;;;6.05;5.45;;;;;;;21.09;34.87;101324.03;6250122;23;20750;-86
2023/04/10 10:52:56;;;;;;;6.80;5.20;;;;;;;20.50;37.90;101321.09;6249325;23;20039;-86
2023/04/10 10:55:21;;;;;;;5.10;4.70;;;;;;;19.80;37.27;101315.16;6240068;23;20000;-86
2023/04/10 10:57:51;;;;;;;5.00;4.50;;;;;;;19.14;37.81;101317.78;6237897;23;20054;-87
2023/04/10 11:00:17;;;;;;;5.13;4.55;;;;;;;18.67;38.72;101316.06;6238440;23;20344;-86
2023/04/10 11:02:43;;;;;;;4.93;4.53;;;;;;;18.55;39.68;101303.53;6238579;23;20008;-87
2023/04/10 11:05:08;;;;;;;5.03;4.63;;;;;;;18.56;40.18;101298.03;6238629;23;20159;-87
2023/04/10 11:08:09;;;;;;;5.95;4.55;;;;;;;19.12;40.46;101286.50;6211727;23;20065;-87
2023/04/10 11:11:04;;;;;;;4.85;4.40;;;;;;;19.41;38.91;101286.84;6176766;23;20467;-84
2023/04/10 11:13:30;;;;;;;5.00;4.50;;;;;;;19.76;37.07;101281.28;6174714;23;20001;-86
2023/04/10 11:15:56;;;;;;;7.80;4.45;;;;;;;19.91;37.10;101289.97;6175580;23;20040;-88
2023/04/10 11:19:00;;;;;;;4.53;4.13;;;;;;;20.39;37.10;101279.56;6175506;23;20024;-87
2023/04/10 11:21:27;;;;;;;;;;;;;;;21.22;35.99;101268.81;6116747;23;20351;-86